Time;durP1;ratioP1;P1;durP2;ratioP2;P2;SDS_P1;SDS_P2;PMS_P1;PMS_P2;Temp;Humidity;BMP_temperature;BMP_pressure;BME280_temperature;BME280_humidity;BME280_pressure;Samples;Min_cycle;Max_cycle;Signal;HPM_P1;HPM_P2
2021/12/22 00:01:31;;;;;;;73.22;31.45;;;0.80;99.90;;;;;;5084189;28;20032;-73
2021/12/22 00:03:58;;;;;;;66.57;32.38;;;0.80;99.90;;;;;;5084343;28;20032;-73
2021/12/22 00:06:26;;;;;;;70.45;32.10;;;0.80;99.90;;;;;;5082983;28;20268;-73
2021/12/22 00:08:53;;;;;;;74.10;31.77;;;0.90;99.90;;;;;;5083903;28;20017;-73
2021/12/22 00:11:19;;;;;;;68.20;30.73;;;0.90;99.90;;;;;;5084105;28;20020;-73
2021/12/22 00:13:44;;;;;;;73.25;33.03;;;0.90;99.90;;;;;;5066411;28;20020;-73
2021/12/22 00:16:11;;;;;;;74.22;32.75;;;0.90;99.90;;;;;;5083788;28;20300;-73
2021/12/22 00:18:37;;;;;;;65.68;31.00;;;0.80;99.90;;;;;;5065652;28;20052;-73
2021/12/22 00:21:03;;;;;;;71.75;30.92;;;0.70;99.90;;;;;;5082752;28;20052;-74
2021/12/22 00:23:30;;;;;;;70.40;31.58;;;0.70;99.90;;;;;;5083929;28;20351;-74
2021/12/22 00:25:56;;;;;;;66.68;31.08;;;0.70;99.90;;;;;;5068732;28;20255;-74
2021/12/22 00:28:22;;;;;;;66.90;29.95;;;0.70;99.90;;;;;;5088481;28;20303;-73
2021/12/22 00:30:49;;;;;;;72.47;32.10;;;0.70;99.90;;;;;;5090133;28;20016;-73
2021/12/22 00:33:15;;;;;;;72.75;31.50;;;0.70;99.90;;;;;;5090210;28;20078;-73
2021/12/22 00:35:44;;;;;;;73.60;32.45;;;0.70;99.90;;;;;;5089626;28;20300;-73
2021/12/22 00:38:13;;;;;;;67.95;31.40;;;0.60;99.90;;;;;;5073087;28;20028;-73
2021/12/22 00:40:40;;;;;;;72.80;30.33;;;0.60;99.90;;;;;;5089340;28;20024;-74
2021/12/22 00:43:05;;;;;;;73.97;30.33;;;0.60;99.90;;;;;;5094501;28;20034;-73
2021/12/22 00:45:33;;;;;;;70.60;31.48;;;0.60;99.90;;;;;;5085154;28;20024;-74
2021/12/22 00:48:00;;;;;;;68.68;30.38;;;0.60;99.90;;;;;;5067412;28;20088;-72
2021/12/22 00:50:25;;;;;;;73.63;32.45;;;0.50;99.90;;;;;;5081720;28;20021;-72
2021/12/22 00:52:51;;;;;;;81.05;30.88;;;0.50;99.90;;;;;;5097367;28;20027;-73
2021/12/22 00:55:19;;;;;;;69.97;31.63;;;0.40;99.90;;;;;;5091470;28;20020;-73
2021/12/22 00:57:46;;;;;;;76.43;30.70;;;0.40;99.90;;;;;;5089812;28;20101;-74
2021/12/22 01:00:13;;;;;;;63.88;31.70;;;0.40;99.90;;;;;;5088965;28;20048;-73
2021/12/22 01:02:39;;;;;;;74.00;30.65;;;0.40;99.90;;;;;;5089298;28;20016;-73
2021/12/22 01:05:06;;;;;;;68.00;32.17;;;0.40;99.90;;;;;;5072474;28;20095;-73
2021/12/22 01:07:32;;;;;;;73.90;31.15;;;0.40;99.90;;;;;;5090235;28;20035;-73
2021/12/22 01:09:58;;;;;;;73.97;32.40;;;0.40;99.90;;;;;;5088678;28;20039;-73
2021/12/22 01:12:23;;;;;;;68.40;30.83;;;0.50;99.90;;;;;;5090356;28;20122;-73
2021/12/22 01:14:49;;;;;;;69.15;30.05;;;0.40;99.90;;;;;;5090134;28;20039;-73
2021/12/22 01:17:16;;;;;;;69.03;30.27;;;0.40;99.90;;;;;;5089023;28;20027;-73
2021/12/22 01:20:02;;;;;;;70.80;30.30;;;0.30;99.90;;;;;;5088838;28;20295;-73
2021/12/22 01:22:36;;;;;;;66.53;29.38;;;0.30;99.90;;;;;;5089141;28;20060;-73
2021/12/22 01:25:04;;;;;;;71.55;30.92;;;0.30;99.90;;;;;;5090209;28;20013;-73
2021/12/22 01:27:35;;;;;;;65.55;29.27;;;0.30;99.90;;;;;;5088065;28;20043;-72
2021/12/22 01:30:04;;;;;;;60.40;28.03;;;0.30;99.90;;;;;;5089848;28;20020;-73
2021/12/22 01:32:30;;;;;;;65.20;28.50;;;0.30;99.90;;;;;;5089064;28;20031;-72
2021/12/22 01:34:56;;;;;;;62.00;28.88;;;0.30;99.90;;;;;;5089961;28;20017;-72
2021/12/22 01:37:22;;;;;;;62.72;28.05;;;0.20;99.90;;;;;;5087837;28;20306;-73
2021/12/22 01:39:48;;;;;;;66.72;28.95;;;0.20;99.90;;;;;;5086657;28;20032;-72
2021/12/22 01:42:13;;;;;;;66.43;29.65;;;0.10;99.90;;;;;;5086643;28;20028;-73
2021/12/22 01:45:00;;;;;;;67.07;29.40;;;0.10;99.90;;;;;;5086615;28;20031;-72
2021/12/22 01:50:17;;;;;;;67.60;29.27;;;0.10;99.90;;;;;;5085232;28;20027;-73
2021/12/22 01:52:43;;;;;;;63.42;29.42;;;0.10;99.90;;;;;;5085635;28;20091;-73
2021/12/22 01:55:25;;;;;;;68.95;29.05;;;0.10;99.90;;;;;;5086600;28;20035;-73
2021/12/22 01:57:51;;;;;;;58.58;28.67;;;0.10;99.90;;;;;;5086245;28;20024;-73
2021/12/22 02:00:19;;;;;;;68.88;29.38;;;0.00;99.90;;;;;;5086106;28;20211;-73
2021/12/22 02:02:45;;;;;;;64.50;27.80;;;0.00;99.90;;;;;;5085306;28;20081;-73
2021/12/22 02:05:11;;;;;;;64.45;27.75;;;-0.10;99.90;;;;;;5086441;28;20024;-72
2021/12/22 02:07:37;;;;;;;62.30;27.88;;;-0.10;99.90;;;;;;5085215;28;20039;-72
2021/12/22 02:10:27;;;;;;;58.42;27.70;;;-0.10;99.90;;;;;;5085960;28;20021;-72
2021/12/22 02:12:53;;;;;;;57.78;26.10;;;-0.10;99.90;;;;;;5071465;28;20087;-76
2021/12/22 02:15:19;;;;;;;66.95;27.98;;;-0.10;99.90;;;;;;5086093;28;20113;-72
2021/12/22 02:17:45;;;;;;;63.45;28.55;;;-0.10;99.90;;;;;;5086151;28;20051;-73
2021/12/22 02:20:11;;;;;;;64.10;27.10;;;-0.10;99.90;;;;;;5085784;28;20016;-73
2021/12/22 02:22:40;;;;;;;62.03;27.73;;;-0.10;99.90;;;;;;5084796;28;20040;-73
2021/12/22 02:25:13;;;;;;;59.42;26.83;;;0.00;99.90;;;;;;5085991;28;20071;-72
2021/12/22 02:27:46;;;;;;;61.88;27.23;;;0.00;99.90;;;;;;5085553;28;20020;-73
2021/12/22 02:30:22;;;;;;;55.65;26.17;;;-0.10;99.90;;;;;;5083958;28;20088;-73
2021/12/22 02:35:44;;;;;;;54.83;25.20;;;0.00;99.90;;;;;;5084916;28;20065;-73
2021/12/22 02:38:18;;;;;;;62.50;27.20;;;0.00;99.90;;;;;;5084507;28;20208;-73
2021/12/22 02:40:47;;;;;;;60.15;26.65;;;-0.10;99.90;;;;;;5068736;28;20295;-72
2021/12/22 02:43:20;;;;;;;59.38;26.20;;;-0.10;99.90;;;;;;5084535;28;20032;-72
2021/12/22 02:45:46;;;;;;;64.40;28.30;;;-0.10;99.90;;;;;;5084354;28;20031;-73
2021/12/22 02:48:12;;;;;;;54.58;24.55;;;-0.10;99.90;;;;;;5085198;28;20034;-72
2021/12/22 02:50:38;;;;;;;64.00;25.80;;;-0.10;99.90;;;;;;5084426;28;20020;-72
2021/12/22 02:53:09;;;;;;;65.03;25.42;;;-0.10;99.90;;;;;;5085296;28;20287;-73
2021/12/22 03:01:24;;;;;;;56.63;24.25;;;0.20;99.90;;;;;;5070078;28;20070;-73
2021/12/22 03:03:59;;;;;;;52.40;24.38;;;0.20;99.90;;;;;;5085262;28;20032;-72
2021/12/22 03:06:35;;;;;;;59.00;24.45;;;0.10;99.90;;;;;;5084238;28;20020;-73
2021/12/22 03:09:14;;;;;;;56.70;24.85;;;0.10;99.90;;;;;;5083773;28;20032;-73
2021/12/22 03:11:39;;;;;;;58.58;25.20;;;0.00;99.90;;;;;;5085055;28;20176;-73
2021/12/22 03:14:05;;;;;;;59.25;24.55;;;0.00;99.90;;;;;;5084690;28;20027;-73
2021/12/22 03:16:30;;;;;;;55.67;25.20;;;0.00;99.90;;;;;;5084981;28;20016;-73
2021/12/22 03:18:57;;;;;;;55.88;24.88;;;-0.10;99.90;;;;;;5084874;28;20028;-73
2021/12/22 03:21:23;;;;;;;51.45;23.65;;;0.00;99.90;;;;;;5084764;28;20287;-73
2021/12/22 03:23:51;;;;;;;53.95;23.55;;;0.00;99.90;;;;;;5084896;28;20064;-73
2021/12/22 03:26:18;;;;;;;53.28;24.98;;;0.00;99.90;;;;;;5084899;28;20263;-72
2021/12/22 03:28:45;;;;;;;57.78;24.98;;;0.00;99.90;;;;;;5084211;28;20028;-72
2021/12/22 03:31:12;;;;;;;61.95;24.70;;;0.00;99.90;;;;;;5081598;28;20299;-73
2021/12/22 03:33:38;;;;;;;57.03;24.83;;;0.00;99.90;;;;;;5084388;28;20029;-72
2021/12/22 03:36:05;;;;;;;54.10;23.42;;;0.00;99.90;;;;;;5084646;28;20265;-72
2021/12/22 03:38:32;;;;;;;55.30;24.52;;;0.00;99.90;;;;;;5084745;28;20048;-72
2021/12/22 03:40:58;;;;;;;53.17;23.42;;;0.00;99.90;;;;;;5084474;28;20020;-72
2021/12/22 03:43:24;;;;;;;52.97;23.63;;;0.00;99.90;;;;;;5084295;28;20036;-72
2021/12/22 03:45:50;;;;;;;61.92;25.27;;;0.00;99.90;;;;;;5066573;28;20211;-72
2021/12/22 03:48:17;;;;;;;51.97;25.25;;;-0.10;99.90;;;;;;5084414;28;20211;-73
2021/12/22 03:50:43;;;;;;;53.53;24.20;;;-0.10;99.90;;;;;;5084530;28;20028;-72
2021/12/22 03:53:10;;;;;;;59.33;24.50;;;0.00;99.90;;;;;;5095071;28;20013;-72
2021/12/22 03:55:36;;;;;;;51.38;23.70;;;0.10;99.90;;;;;;5094738;28;20012;-70
2021/12/22 03:58:02;;;;;;;58.80;25.00;;;0.10;99.90;;;;;;5076681;28;20048;-72
2021/12/22 04:00:29;;;;;;;56.03;23.65;;;0.00;99.90;;;;;;5091372;28;20027;-72
2021/12/22 04:02:56;;;;;;;59.40;23.40;;;0.10;99.90;;;;;;5088048;28;20022;-72
2021/12/22 04:05:22;;;;;;;53.53;23.67;;;0.10;99.90;;;;;;5084807;28;20047;-72
2021/12/22 04:07:47;;;;;;;50.33;22.35;;;0.20;99.90;;;;;;5084412;28;20024;-72
2021/12/22 04:10:20;;;;;;;51.30;22.23;;;0.20;99.90;;;;;;5083887;28;20358;-72
2021/12/22 04:12:47;;;;;;;52.92;22.55;;;0.20;99.90;;;;;;5085653;28;20032;-72
2021/12/22 04:15:13;;;;;;;52.17;22.77;;;0.20;99.90;;;;;;5067773;28;20016;-72
2021/12/22 04:17:38;;;;;;;48.42;22.27;;;0.20;99.90;;;;;;5085492;28;20024;-72
2021/12/22 04:20:04;;;;;;;53.70;21.20;;;0.30;99.90;;;;;;5083907;28;20059;-72
2021/12/22 04:22:30;;;;;;;50.50;22.08;;;0.40;99.90;;;;;;5082809;28;20334;-73
2021/12/22 04:24:56;;;;;;;45.63;19.65;;;0.40;99.90;;;;;;5082904;28;20088;-73
2021/12/22 04:27:21;;;;;;;43.92;20.65;;;0.40;99.90;;;;;;5082523;28;20035;-72
2021/12/22 04:29:47;;;;;;;49.35;20.58;;;0.30;99.90;;;;;;5082576;28;20023;-72
2021/12/22 04:32:12;;;;;;;40.70;19.23;;;0.30;99.90;;;;;;5081361;28;20088;-72
2021/12/22 04:34:38;;;;;;;51.50;21.42;;;0.20;99.90;;;;;;5082661;28;20020;-72
2021/12/22 04:37:04;;;;;;;50.13;21.08;;;0.40;99.90;;;;;;5083895;28;20096;-72
2021/12/22 04:39:32;;;;;;;43.88;20.55;;;0.30;99.90;;;;;;5083795;28;20024;-73
2021/12/22 04:41:59;;;;;;;46.65;21.65;;;0.30;99.90;;;;;;5083834;28;20090;-72
2021/12/22 04:44:25;;;;;;;42.75;20.92;;;0.30;99.90;;;;;;5083410;28;20031;-72
2021/12/22 04:46:50;;;;;;;47.08;21.08;;;0.30;99.90;;;;;;5083606;28;20051;-72
2021/12/22 04:49:16;;;;;;;52.38;21.02;;;0.30;99.90;;;;;;5065712;28;20091;-73
2021/12/22 04:51:51;;;;;;;45.70;21.58;;;0.20;99.90;;;;;;5083603;28;20024;-72
2021/12/22 04:54:29;;;;;;;44.50;21.08;;;0.20;99.90;;;;;;5083444;28;20035;-72
2021/12/22 04:56:57;;;;;;;45.00;21.60;;;0.30;99.90;;;;;;5083614;28;20020;-74
2021/12/22 04:59:23;;;;;;;48.83;21.23;;;0.30;99.90;;;;;;5065479;28;20047;-72
2021/12/22 05:01:48;;;;;;;57.47;21.27;;;0.30;99.90;;;;;;5083660;28;20036;-72
2021/12/22 05:04:14;;;;;;;50.45;22.38;;;0.20;99.90;;;;;;5083076;28;20319;-73
2021/12/22 05:06:40;;;;;;;52.08;22.38;;;0.20;99.90;;;;;;5065596;28;20031;-72
2021/12/22 05:09:07;;;;;;;54.17;21.88;;;0.10;99.90;;;;;;5083554;28;20082;-72
2021/12/22 05:11:34;;;;;;;53.80;22.33;;;0.10;99.90;;;;;;5082579;28;20100;-72
2021/12/22 05:14:02;;;;;;;56.15;21.17;;;0.10;99.90;;;;;;5085178;28;20029;-73
2021/12/22 05:16:28;;;;;;;49.55;20.77;;;0.20;99.90;;;;;;5086238;28;20020;-73
2021/12/22 05:18:59;;;;;;;47.15;21.10;;;0.20;99.90;;;;;;5087245;28;20051;-73
2021/12/22 05:21:26;;;;;;;52.13;21.95;;;0.20;99.90;;;;;;5087295;28;20017;-72
2021/12/22 05:23:54;;;;;;;58.22;23.65;;;0.20;99.90;;;;;;5086937;28;20062;-72
2021/12/22 05:26:21;;;;;;;52.83;22.35;;;0.30;99.90;;;;;;5069612;28;20126;-73
2021/12/22 05:28:47;;;;;;;54.67;23.35;;;0.30;99.90;;;;;;5086533;28;20016;-73
2021/12/22 05:31:13;;;;;;;53.33;24.00;;;0.40;99.90;;;;;;5084278;28;20016;-72
2021/12/22 05:33:39;;;;;;;46.50;22.90;;;0.50;99.90;;;;;;5086880;28;20053;-73
2021/12/22 05:36:06;;;;;;;54.63;21.85;;;0.40;99.90;;;;;;5087033;28;20027;-72
2021/12/22 05:38:31;;;;;;;52.95;24.20;;;0.30;99.90;;;;;;5086934;28;20016;-73
2021/12/22 05:40:57;;;;;;;52.65;23.05;;;0.30;99.90;;;;;;5069054;28;20074;-72
2021/12/22 05:43:23;;;;;;;49.40;22.52;;;0.40;99.90;;;;;;5086467;28;20055;-73
2021/12/22 05:45:48;;;;;;;45.17;20.40;;;0.50;99.90;;;;;;5086551;28;20323;-71
2021/12/22 05:48:14;;;;;;;46.40;20.42;;;0.50;99.90;;;;;;5086546;28;20253;-73
2021/12/22 05:50:44;;;;;;;48.35;22.15;;;0.60;99.90;;;;;;5086660;28;20208;-73
2021/12/22 05:53:10;;;;;;;40.28;19.30;;;0.70;99.90;;;;;;5085298;28;20024;-72
2021/12/22 05:55:35;;;;;;;43.58;19.77;;;0.70;99.90;;;;;;5086504;28;20031;-73
2021/12/22 05:58:01;;;;;;;46.42;20.38;;;0.70;99.90;;;;;;5086102;28;20204;-73
2021/12/22 06:00:27;;;;;;;43.55;21.40;;;0.70;99.90;;;;;;5086495;28;20051;-72
2021/12/22 06:02:52;;;;;;;47.70;20.52;;;0.80;99.90;;;;;;5086439;28;20031;-73
2021/12/22 06:05:19;;;;;;;41.40;20.35;;;0.80;99.90;;;;;;5086148;28;20376;-72
2021/12/22 06:07:45;;;;;;;47.28;20.45;;;0.80;99.90;;;;;;5086278;28;20204;-73
2021/12/22 06:10:12;;;;;;;46.13;20.52;;;0.90;99.90;;;;;;5086333;28;20322;-73
2021/12/22 06:12:37;;;;;;;46.10;20.48;;;1.00;99.90;;;;;;5085094;28;20095;-72
2021/12/22 06:15:04;;;;;;;42.58;19.42;;;1.10;99.90;;;;;;5086121;28;20322;-73
2021/12/22 06:17:30;;;;;;;51.47;20.40;;;1.10;99.90;;;;;;5085077;28;20024;-73
2021/12/22 06:19:56;;;;;;;47.38;19.88;;;1.10;99.90;;;;;;5086052;28;20084;-72
2021/12/22 06:22:22;;;;;;;42.65;20.67;;;1.30;99.90;;;;;;5085996;28;20315;-72
2021/12/22 06:24:48;;;;;;;48.92;22.50;;;1.30;99.90;;;;;;5085613;28;20088;-73
2021/12/22 06:27:14;;;;;;;48.40;21.35;;;1.40;99.90;;;;;;5084672;28;20020;-73
2021/12/22 06:29:40;;;;;;;44.30;20.27;;;1.40;99.90;;;;;;5085739;28;20020;-73
2021/12/22 06:32:06;;;;;;;47.30;20.55;;;1.50;99.90;;;;;;5084637;28;20089;-73
2021/12/22 06:34:32;;;;;;;50.92;20.95;;;1.50;99.90;;;;;;5085771;28;20029;-72
2021/12/22 06:36:58;;;;;;;46.65;20.20;;;1.60;99.90;;;;;;5085565;28;20062;-72
2021/12/22 06:39:24;;;;;;;46.95;20.08;;;1.60;99.90;;;;;;5085757;28;20024;-72
2021/12/22 06:41:50;;;;;;;42.10;19.08;;;1.70;99.90;;;;;;5085588;28;20020;-72
2021/12/22 06:44:15;;;;;;;45.40;20.75;;;1.70;99.90;;;;;;5085309;28;20040;-73
2021/12/22 06:46:42;;;;;;;51.00;20.15;;;1.70;99.90;;;;;;5085377;28;20051;-72
2021/12/22 06:49:10;;;;;;;71.65;22.48;;;1.70;99.90;;;;;;5085368;28;20025;-72
2021/12/22 06:51:36;;;;;;;57.80;19.92;;;1.70;99.90;;;;;;5084416;28;20012;-72
2021/12/22 06:54:03;;;;;;;72.45;22.15;;;1.70;99.90;;;;;;5085352;28;20020;-72
2021/12/22 06:56:28;;;;;;;66.78;21.83;;;1.80;99.90;;;;;;5083974;28;20024;-72
2021/12/22 06:58:56;;;;;;;63.50;20.20;;;1.80;99.90;;;;;;5084723;28;20044;-72
2021/12/22 07:01:22;;;;;;;73.60;21.77;;;1.90;99.90;;;;;;5089718;28;20038;-72
2021/12/22 07:03:48;;;;;;;59.40;21.55;;;1.90;99.90;;;;;;5097471;28;20024;-72
2021/12/22 07:06:14;;;;;;;55.22;20.25;;;2.10;99.90;;;;;;5095956;28;20016;-72
2021/12/22 07:08:40;;;;;;;50.42;21.05;;;2.20;99.90;;;;;;5094872;28;20021;-73
2021/12/22 07:11:06;;;;;;;48.67;21.55;;;2.10;99.90;;;;;;5091920;28;20028;-73
2021/12/22 07:13:32;;;;;;;52.35;20.70;;;2.10;99.90;;;;;;5087520;28;20028;-72
2021/12/22 07:15:58;;;;;;;54.92;20.83;;;2.00;99.90;;;;;;5085071;28;20025;-73
2021/12/22 07:18:23;;;;;;;44.03;20.92;;;2.00;99.90;;;;;;5083821;28;20318;-73
2021/12/22 07:20:49;;;;;;;58.95;20.30;;;1.90;99.90;;;;;;5084974;28;20023;-72
2021/12/22 07:23:15;;;;;;;52.97;21.38;;;1.90;99.90;;;;;;5084880;28;20036;-72
2021/12/22 07:25:41;;;;;;;49.65;19.48;;;1.80;99.90;;;;;;5084646;28;20020;-72
2021/12/22 07:28:10;;;;;;;47.42;19.25;;;1.90;99.90;;;;;;5084554;28;20215;-73
2021/12/22 07:30:37;;;;;;;49.53;19.35;;;1.80;99.90;;;;;;5084603;28;20021;-72
2021/12/22 07:33:03;;;;;;;43.45;18.98;;;1.90;99.90;;;;;;5082896;28;20020;-74
2021/12/22 07:35:52;;;;;;;45.17;19.17;;;1.90;99.90;;;;;;5083020;28;20118;-72
2021/12/22 07:38:52;;;;;;;47.58;20.33;;;1.90;99.90;;;;;;5053521;28;20024;-72
2021/12/22 07:41:17;;;;;;;49.72;19.60;;;2.00;99.90;;;;;;5071428;28;20244;-73
2021/12/22 07:43:44;;;;;;;48.80;19.60;;;1.90;99.90;;;;;;5083294;28;20054;-73
2021/12/22 07:46:10;;;;;;;51.55;21.20;;;1.90;99.90;;;;;;5083008;28;20036;-72
2021/12/22 07:48:36;;;;;;;45.78;20.38;;;1.90;99.90;;;;;;5084400;28;20204;-73
2021/12/22 07:51:02;;;;;;;47.63;18.23;;;1.90;99.90;;;;;;5084279;28;20020;-73
2021/12/22 07:53:28;;;;;;;50.65;20.35;;;1.90;99.90;;;;;;5084316;28;20024;-73
2021/12/22 07:55:54;;;;;;;43.13;19.67;;;1.90;99.90;;;;;;5084082;28;20215;-72
2021/12/22 07:58:24;;;;;;;52.72;20.27;;;1.90;99.90;;;;;;5083901;28;20028;-73
2021/12/22 08:00:51;;;;;;;44.53;18.95;;;1.90;99.90;;;;;;5084150;28;20052;-73
2021/12/22 08:03:17;;;;;;;53.60;20.77;;;1.90;99.90;;;;;;5084136;28;20016;-74
2021/12/22 08:05:43;;;;;;;55.78;19.30;;;1.90;99.90;;;;;;5084137;28;20022;-73
2021/12/22 08:08:09;;;;;;;51.38;19.40;;;1.90;99.90;;;;;;5082922;28;20052;-73
2021/12/22 08:10:34;;;;;;;47.67;20.60;;;1.90;99.90;;;;;;5084270;28;20042;-74
2021/12/22 08:13:01;;;;;;;56.70;20.63;;;2.00;99.90;;;;;;5084121;28;20066;-73
2021/12/22 08:15:26;;;;;;;57.65;22.20;;;2.00;99.90;;;;;;5066392;28;20056;-73
2021/12/22 08:17:53;;;;;;;59.72;20.98;;;1.90;99.90;;;;;;5083911;28;20074;-73
2021/12/22 08:20:19;;;;;;;60.67;21.15;;;1.80;99.90;;;;;;5066246;28;20016;-74
2021/12/22 08:22:45;;;;;;;47.70;20.60;;;1.70;99.90;;;;;;5083925;28;20056;-73
2021/12/22 08:25:12;;;;;;;48.53;21.02;;;1.60;99.90;;;;;;5084153;28;20012;-74
2021/12/22 08:27:38;;;;;;;53.28;22.15;;;1.60;99.90;;;;;;5083322;28;20036;-74
2021/12/22 08:30:06;;;;;;;53.60;22.17;;;1.60;99.90;;;;;;5082767;28;20021;-74
2021/12/22 08:32:32;;;;;;;53.72;21.30;;;1.60;99.90;;;;;;5083660;28;20304;-74
2021/12/22 08:34:57;;;;;;;53.35;21.23;;;1.70;99.90;;;;;;5081923;28;20249;-73
2021/12/22 08:40:14;;;;;;;56.88;22.23;;;1.80;99.90;;;;;;5082955;28;20020;-73
2021/12/22 08:42:40;;;;;;;53.97;20.98;;;1.80;99.90;;;;;;5083588;28;20047;-73
2021/12/22 08:45:07;;;;;;;56.42;22.60;;;1.80;99.90;;;;;;5083777;28;20025;-73
2021/12/22 08:47:32;;;;;;;56.35;22.17;;;1.80;99.90;;;;;;5086057;28;20056;-75
2021/12/22 08:49:58;;;;;;;49.78;21.58;;;1.90;99.90;;;;;;5086729;28;20021;-73
2021/12/22 08:52:24;;;;;;;49.70;20.95;;;1.90;99.90;;;;;;5087790;28;20024;-73
2021/12/22 08:54:49;;;;;;;49.25;20.77;;;2.10;99.90;;;;;;5087550;28;20211;-73
2021/12/22 08:57:16;;;;;;;57.03;21.23;;;2.20;99.90;;;;;;5087036;28;20218;-72
2021/12/22 08:59:41;;;;;;;49.13;20.83;;;2.20;99.90;;;;;;5086891;28;20385;-74
2021/12/22 09:02:07;;;;;;;44.95;21.00;;;2.30;99.90;;;;;;5087339;28;20054;-75
2021/12/22 09:04:33;;;;;;;48.33;19.98;;;2.40;99.90;;;;;;5087497;28;20037;-72
2021/12/22 09:06:59;;;;;;;43.67;19.65;;;2.50;99.90;;;;;;5087190;28;20327;-73
2021/12/22 09:09:25;;;;;;;46.30;19.40;;;2.60;99.90;;;;;;5087611;28;20017;-73
2021/12/22 09:11:51;;;;;;;41.88;19.15;;;2.60;99.90;;;;;;5087253;28;20083;-74
2021/12/22 09:14:18;;;;;;;44.65;18.95;;;2.70;99.90;;;;;;5085922;28;20024;-74
2021/12/22 09:16:44;;;;;;;43.65;18.77;;;2.80;99.90;;;;;;5086964;28;20231;-74
2021/12/22 09:19:10;;;;;;;43.78;17.92;;;2.90;99.90;;;;;;5087014;28;20025;-73
2021/12/22 09:21:37;;;;;;;35.13;15.48;;;2.90;99.90;;;;;;5087105;28;20013;-73
2021/12/22 09:24:04;;;;;;;33.78;14.40;;;3.00;99.90;;;;;;5085893;28;20052;-74
2021/12/22 09:26:29;;;;;;;33.83;15.55;;;3.00;99.90;;;;;;5069481;28;20021;-74
2021/12/22 09:28:56;;;;;;;33.03;14.45;;;3.20;99.90;;;;;;5086639;28;20203;-74
2021/12/22 09:31:22;;;;;;;33.17;14.52;;;3.30;99.90;;;;;;5086068;28;20013;-75
2021/12/22 09:33:48;;;;;;;37.88;14.77;;;3.30;99.90;;;;;;5085700;28;20258;-73
2021/12/22 09:36:15;;;;;;;26.73;12.82;;;3.30;99.90;;;;;;5085279;28;20062;-73
2021/12/22 09:38:41;;;;;;;31.42;13.48;;;3.30;99.90;;;;;;5086735;28;20035;-74
2021/12/22 09:41:08;;;;;;;31.95;12.40;;;3.30;99.90;;;;;;5069097;28;20065;-73
2021/12/22 09:43:34;;;;;;;28.48;12.23;;;3.40;99.90;;;;;;5086759;28;20057;-73
2021/12/22 09:46:06;;;;;;;25.23;12.13;;;3.40;99.90;;;;;;5085525;28;20024;-74
2021/12/22 09:48:51;;;;;;;;;;;3.50;99.90;;;;;;5086693;28;20111;-73
2021/12/22 09:54:07;;;;;;;21.23;9.95;;;3.60;99.90;;;;;;5085572;28;20319;-73
2021/12/22 09:56:33;;;;;;;24.75;11.27;;;3.60;99.90;;;;;;5086550;28;20040;-73
2021/12/22 09:58:59;;;;;;;22.75;11.27;;;3.60;99.90;;;;;;5085209;28;20084;-74
2021/12/22 10:01:25;;;;;;;27.42;11.10;;;3.80;99.90;;;;;;5085337;28;20224;-72
2021/12/22 10:03:53;;;;;;;27.85;11.93;;;3.80;99.90;;;;;;5086447;28;20334;-74
2021/12/22 10:06:19;;;;;;;35.97;11.50;;;3.90;99.90;;;;;;5085338;28;20215;-73
2021/12/22 10:09:03;;;;;;;48.05;12.85;;;3.90;99.90;;;;;;5085075;28;20025;-73
2021/12/22 10:11:32;;;;;;;42.35;11.65;;;4.00;99.90;;;;;;5086799;28;20317;-74
2021/12/22 10:13:58;;;;;;;25.75;10.63;;;4.00;99.90;;;;;;5085469;28;20032;-73
2021/12/22 10:16:26;;;;;;;31.25;11.05;;;4.00;99.90;;;;;;5086520;28;20318;-73
2021/12/22 10:19:09;;;;;;;24.13;10.32;;;4.00;99.90;;;;;;5097751;28;20035;-73
2021/12/22 10:21:49;;;;;;;24.92;10.55;;;4.10;99.90;;;;;;5096988;28;20046;-73
2021/12/22 10:24:14;;;;;;;23.23;10.02;;;4.20;99.90;;;;;;5095367;28;20058;-73
2021/12/22 10:26:40;;;;;;;24.90;10.40;;;4.20;99.90;;;;;;5093036;28;20032;-74
2021/12/22 10:29:07;;;;;;;30.98;10.65;;;4.30;99.90;;;;;;5090022;28;20039;-74
2021/12/22 10:31:38;;;;;;;28.45;10.20;;;4.40;99.90;;;;;;5086078;28;20251;-72
2021/12/22 10:34:06;;;;;;;26.52;10.82;;;4.40;99.90;;;;;;5085847;28;20078;-74
2021/12/22 10:36:56;;;;;;;26.58;9.68;;;4.40;99.90;;;;;;5084023;28;20028;-73
2021/12/22 10:39:27;;;;;;;21.70;9.93;;;4.40;99.90;;;;;;5084419;28;20080;-75
2021/12/22 10:42:00;;;;;;;21.30;10.43;;;4.40;99.90;;;;;;5084461;28;20040;-74
2021/12/22 10:44:34;;;;;;;22.98;9.70;;;4.40;99.90;;;;;;5084523;28;20025;-74
2021/12/22 10:47:32;;;;;;;27.48;9.75;;;4.50;99.90;;;;;;5084185;28;20020;-73
2021/12/22 10:50:00;;;;;;;23.02;9.20;;;4.60;99.90;;;;;;5084553;28;20020;-74
2021/12/22 10:52:26;;;;;;;22.90;9.77;;;4.60;99.90;;;;;;5084381;28;20062;-73
2021/12/22 10:55:10;;;;;;;25.63;9.68;;;4.60;99.90;;;;;;5085804;28;20073;-74
2021/12/22 10:57:38;;;;;;;20.75;9.77;;;4.60;99.90;;;;;;5084706;28;20315;-73
2021/12/22 11:00:21;;;;;;;21.27;9.73;;;4.60;99.90;;;;;;5084890;28;20259;-73
2021/12/22 11:03:08;;;;;;;22.63;9.77;;;4.60;99.90;;;;;;5084209;28;20056;-74
2021/12/22 11:05:51;;;;;;;24.83;9.18;;;4.70;99.90;;;;;;5083959;28;20055;-74
2021/12/22 11:08:21;;;;;;;20.83;9.05;;;4.70;99.90;;;;;;5085168;28;20024;-74
2021/12/22 11:10:48;;;;;;;26.88;9.20;;;4.80;99.90;;;;;;5065987;28;20048;-75
2021/12/22 11:13:19;;;;;;;21.23;8.52;;;4.70;99.90;;;;;;5085029;28;20047;-73
2021/12/22 11:15:45;;;;;;;20.95;8.00;;;4.70;99.90;;;;;;5067303;28;20203;-74
2021/12/22 11:18:34;;;;;;;22.42;8.45;;;4.70;99.90;;;;;;5083556;28;20320;-73
2021/12/22 11:21:15;;;;;;;20.80;8.95;;;4.60;99.90;;;;;;5067183;28;20032;-74
2021/12/22 11:23:41;;;;;;;20.90;7.97;;;4.60;99.90;;;;;;5083723;28;20052;-74
2021/12/22 11:26:07;;;;;;;18.65;8.10;;;4.70;99.90;;;;;;5084553;28;20027;-75
2021/12/22 11:28:34;;;;;;;19.38;8.10;;;4.70;99.90;;;;;;5083334;28;20025;-74
2021/12/22 11:31:00;;;;;;;18.85;8.45;;;4.70;99.90;;;;;;5083301;28;20020;-74
2021/12/22 11:33:27;;;;;;;16.25;8.30;;;4.90;99.90;;;;;;5083594;28;20024;-74
2021/12/22 11:35:56;;;;;;;23.55;7.68;;;5.00;99.90;;;;;;5084649;28;20212;-73
2021/12/22 11:38:23;;;;;;;17.65;8.60;;;5.00;99.90;;;;;;5083070;28;20047;-73
2021/12/22 11:41:02;;;;;;;25.10;7.80;;;5.10;99.90;;;;;;5082695;28;20016;-73
2021/12/22 11:43:28;;;;;;;104.55;13.65;;;5.20;99.90;;;;;;5084136;28;20066;-73
2021/12/22 11:45:55;;;;;;;54.17;11.45;;;5.20;99.90;;;;;;5084315;28;20025;-72
2021/12/22 11:48:21;;;;;;;23.85;7.68;;;5.10;99.90;;;;;;5084630;28;20012;-72
2021/12/22 11:50:48;;;;;;;15.93;7.25;;;5.00;99.90;;;;;;5084201;28;20020;-72
2021/12/22 11:53:15;;;;;;;17.55;7.97;;;5.10;99.90;;;;;;5084497;28;20087;-74
2021/12/22 11:55:44;;;;;;;18.63;7.78;;;5.00;99.90;;;;;;5066272;28;20119;-75
2021/12/22 11:58:35;;;;;;;20.90;7.97;;;5.10;99.90;;;;;;5083949;28;20020;-74
2021/12/22 12:01:08;;;;;;;18.60;7.63;;;5.20;99.90;;;;;;5069719;28;20020;-73
2021/12/22 12:03:44;;;;;;;20.75;7.72;;;5.40;99.90;;;;;;5083169;28;20210;-75
2021/12/22 12:06:13;;;;;;;18.45;7.95;;;5.60;99.90;;;;;;5083205;28;20024;-74
2021/12/22 12:09:08;;;;;;;24.77;7.82;;;5.70;99.90;;;;;;5083220;28;20051;-75
2021/12/22 12:11:56;;;;;;;16.55;8.45;;;5.70;99.90;;;;;;5083978;28;20041;-74
2021/12/22 12:15:01;;;;;;;16.60;7.70;;;5.80;99.90;;;;;;5083276;28;20024;-74
2021/12/22 12:23:31;;;;;;;17.83;7.28;;;5.70;99.90;;;;;;5082651;28;20066;-75
2021/12/22 12:26:03;;;;;;;18.80;7.60;;;5.80;99.90;;;;;;5082892;28;20040;-74
2021/12/22 12:28:30;;;;;;;17.85;7.65;;;5.70;99.90;;;;;;5066075;28;20028;-74
2021/12/22 12:30:58;;;;;;;15.15;6.85;;;5.70;99.90;;;;;;5065804;28;20127;-74
2021/12/22 12:33:28;;;;;;;21.23;7.95;;;5.80;99.90;;;;;;5082827;28;20083;-74
2021/12/22 12:36:06;;;;;;;21.20;7.20;;;5.90;99.90;;;;;;5082976;28;20115;-73
2021/12/22 12:38:50;;;;;;;17.40;6.80;;;6.00;99.90;;;;;;5082544;28;20017;-73
2021/12/22 12:41:20;;;;;;;15.18;6.95;;;6.10;99.90;;;;;;5082491;28;20020;-74
2021/12/22 12:43:51;;;;;;;18.42;7.53;;;6.20;99.90;;;;;;5083915;28;20222;-75
2021/12/22 12:46:37;;;;;;;19.20;7.22;;;6.10;99.90;;;;;;5066096;28;20031;-75
2021/12/22 12:49:30;;;;;;;15.82;6.68;;;6.10;99.90;;;;;;5082758;28;20311;-72
2021/12/22 12:51:58;;;;;;;16.80;6.82;;;6.10;99.90;;;;;;5071838;28;20100;-73
2021/12/22 12:54:28;;;;;;;19.48;6.15;;;6.20;99.90;;;;;;5068650;28;20080;-72
2021/12/22 12:56:58;;;;;;;13.25;5.70;;;6.20;99.90;;;;;;5084857;28;20036;-74
2021/12/22 12:59:46;;;;;;;13.13;6.10;;;6.20;99.90;;;;;;5084375;28;20024;-72
2021/12/22 13:02:23;;;;;;;15.35;6.28;;;6.10;99.90;;;;;;5083105;28;20192;-73
2021/12/22 13:05:02;;;;;;;11.38;6.18;;;6.20;99.90;;;;;;5082816;28;20025;-75
2021/12/22 13:07:29;;;;;;;16.20;5.97;;;6.20;99.90;;;;;;5083744;28;20077;-74
2021/12/22 13:10:01;;;;;;;14.88;6.20;;;6.20;99.90;;;;;;5082325;28;20299;-75